Terminal Aerodrome Forecast
Issued by NWS

Home | Current Version | Previous Version | Text Only | Print | Product List | Glossary On
Versions: 1 2 3 4 5 6 7 8 9 10 11 12 13 14 15 16 17 18 19 20 21 22 23 24 25 26 27 28 29 30 31 32
463
FTUS43 KLSX 151501 AAA
TAFUIN
TAF AMD
KUIN 151501Z 1515/1612 08007KT 3SM BR SCT020 OVC060
     FM151600 08007KT 2SM BR OVC020
     FM151800 10005KT 2SM -FZRAPL OVC015
     FM152000 10004KT 2SM -FZRA OVC008
     FM160000 09007KT P6SM VCSH OVC008=

USA.gov is the U.S. government's official web portal to all federal, state and local government web resources and services.